Impacts TAF Board
For situational awareness. Not to be used for flight planning purposes.
IDs:

KSEA - Seattle-Tacoma Intl, WA, US

Issued at 1144 UTC 16 Sep 2019
Updated at 1205 UTC 16 Sep 2019
Potential Impact None Slight Moderate High
Time1153Z 16/13Z 16/14Z 16/15Z 16/16Z 16/17Z 16/18Z 16/19Z 16/20Z 16/21Z 16/22Z 16/23Z 17/00Z 17/01Z>>
Type OBS PRVL
  [TEMP]  
PRVL
  [TEMP]  
PRVL
  [TEMP]  
PRVL PRVL PRVL PRVL PRVL PRVL PRVL PRVL PRVL PRVL
VIS 10 >6
  [5]  
>6
  [5]  
>6
  [5]  
>6 >6 >6 >6 >6 >6 >6 >6 >6 >6
CIG -- 80
  [20]  
80
  [20]  
80
  [20]  
35 35 40 40 40 40 40 -- -- --
Cover FEW BKN
  [BKN]  
BKN
  [BKN]  
BKN
  [BKN]  
BKN BKN BKN BKN BKN BKN BKN SCT SCT SCT
FltCat VFR VFR
  [MVFR]  
VFR
  [MVFR]  
VFR
  [MVFR]  
VFR VFR VFR VFR VFR VFR VFR VFR VFR VFR
WX -- --
  [BR]  
--
  [BR]  
--
  [BR]  
-- -- -- -- -- -- -- VCSH VCSH VCSH
WDir 140 170
[170]
170
[170]
170
[170]
180 180 220 220 220 220 220 220 220 220
WSpd 3 3
  [3]  
3
  [3]  
3
  [3]  
4 4 5 5 5 5 5 8 8 8
WGst -- --
  [--]  
--
  [--]  
--
  [--]  
-- -- -- -- -- -- -- -- -- --
Raw TAF
KSEA 161144Z 1612/1718 17003KT P6SM FEW025 BKN080
  TEMPO 1612/1616 5SM BR BKN020
  FM161600 18004KT P6SM SCT020 BKN035
  FM161800 22005KT P6SM BKN040
  FM162300 22008KT P6SM VCSH SCT050 SCT100
  FM170600 18009KT P6SM OVC050
  FM171000 18010G15KT P6SM VCSH SCT020 OVC030


Raw METAR
KSEA 161153Z 14003KT 10SM FEW025 13/11 A2979 RMK AO2 SLP094 70022 T01280106 10144 20122 53003
KSEA 161053Z 17004KT 10SM FEW025 FEW080 12/11 A2979 RMK AO2 SLP093 T01220106
KSEA 161008Z 16004KT 10SM SCT027 13/11 A2978 RMK AO2 T01280106
KSEA 160953Z 16003KT 10SM FEW015 BKN021 BKN027 13/11 A2979 RMK AO2 SLP091 T01280111

METAR Board
Radar Display
Forecast Discussion
For situational awareness. Not to be used for flight planning purposes.